sensor_id;sensor_type;location;lat;lon;timestamp;P1;durP1;ratioP1;P2;durP2;ratioP2
23078;SDS011;11707;50.830;4.364;2023-03-05T00:00:10;4.15;;;1.98;;
23078;SDS011;11707;50.830;4.364;2023-03-05T00:02:37;7.82;;;2.20;;
23078;SDS011;11707;50.830;4.364;2023-03-05T00:05:04;6.00;;;2.25;;
23078;SDS011;11707;50.830;4.364;2023-03-05T00:07:30;5.82;;;2.53;;
23078;SDS011;11707;50.830;4.364;2023-03-05T00:10:00;4.85;;;2.13;;
23078;SDS011;11707;50.830;4.364;2023-03-05T00:12:26;6.68;;;2.97;;
23078;SDS011;11707;50.830;4.364;2023-03-05T00:14:55;9.52;;;3.08;;
23078;SDS011;11707;50.830;4.364;2023-03-05T00:17:21;5.90;;;2.75;;
23078;SDS011;11707;50.830;4.364;2023-03-05T00:19:48;8.57;;;2.88;;
23078;SDS011;11707;50.830;4.364;2023-03-05T00:22:14;7.20;;;3.25;;
23078;SDS011;11707;50.830;4.364;2023-03-05T00:24:40;7.20;;;3.60;;
23078;SDS011;11707;50.830;4.364;2023-03-05T00:27:05;5.90;;;2.88;;
23078;SDS011;11707;50.830;4.364;2023-03-05T00:29:33;6.47;;;3.72;;
23078;SDS011;11707;50.830;4.364;2023-03-05T00:31:59;10.07;;;3.85;;
23078;SDS011;11707;50.830;4.364;2023-03-05T00:34:25;8.73;;;3.10;;
23078;SDS011;11707;50.830;4.364;2023-03-05T00:36:52;7.68;;;2.95;;
23078;SDS011;11707;50.830;4.364;2023-03-05T00:39:18;9.00;;;2.83;;
23078;SDS011;11707;50.830;4.364;2023-03-05T00:41:44;5.93;;;3.03;;
23078;SDS011;11707;50.830;4.364;2023-03-05T00:44:10;5.18;;;3.20;;
23078;SDS011;11707;50.830;4.364;2023-03-05T00:46:37;7.53;;;3.55;;
23078;SDS011;11707;50.830;4.364;2023-03-05T00:49:02;6.68;;;3.47;;
23078;SDS011;11707;50.830;4.364;2023-03-05T00:51:28;7.40;;;3.47;;
23078;SDS011;11707;50.830;4.364;2023-03-05T00:53:54;6.13;;;3.13;;
23078;SDS011;11707;50.830;4.364;2023-03-05T00:56:20;7.30;;;3.20;;
23078;SDS011;11707;50.830;4.364;2023-03-05T00:58:47;9.27;;;3.95;;
23078;SDS011;11707;50.830;4.364;2023-03-05T01:01:12;10.23;;;3.35;;
23078;SDS011;11707;50.830;4.364;2023-03-05T01:03:39;13.35;;;3.47;;
23078;SDS011;11707;50.830;4.364;2023-03-05T01:06:09;12.40;;;3.45;;
23078;SDS011;11707;50.830;4.364;2023-03-05T01:08:36;6.40;;;3.13;;
23078;SDS011;11707;50.830;4.364;2023-03-05T01:11:02;8.48;;;3.47;;
23078;SDS011;11707;50.830;4.364;2023-03-05T01:13:32;7.70;;;3.85;;
23078;SDS011;11707;50.830;4.364;2023-03-05T01:15:58;8.98;;;3.60;;
23078;SDS011;11707;50.830;4.364;2023-03-05T01:18:24;9.05;;;4.10;;
23078;SDS011;11707;50.830;4.364;2023-03-05T01:20:50;7.07;;;3.88;;
23078;SDS011;11707;50.830;4.364;2023-03-05T01:23:16;10.02;;;4.40;;
23078;SDS011;11707;50.830;4.364;2023-03-05T01:25:41;14.07;;;6.38;;
23078;SDS011;11707;50.830;4.364;2023-03-05T01:28:07;6.35;;;3.38;;
23078;SDS011;11707;50.830;4.364;2023-03-05T01:30:33;7.80;;;3.53;;
23078;SDS011;11707;50.830;4.364;2023-03-05T01:33:00;8.27;;;3.97;;
23078;SDS011;11707;50.830;4.364;2023-03-05T01:35:26;8.20;;;3.63;;
23078;SDS011;11707;50.830;4.364;2023-03-05T01:37:52;8.07;;;3.97;;
23078;SDS011;11707;50.830;4.364;2023-03-05T01:40:19;9.63;;;4.30;;
23078;SDS011;11707;50.830;4.364;2023-03-05T01:42:53;7.88;;;4.07;;
23078;SDS011;11707;50.830;4.364;2023-03-05T01:48:50;10.88;;;3.90;;
23078;SDS011;11707;50.830;4.364;2023-03-05T01:51:28;4.68;;;2.70;;
23078;SDS011;11707;50.830;4.364;2023-03-05T01:53:59;7.05;;;3.10;;
23078;SDS011;11707;50.830;4.364;2023-03-05T01:56:26;6.60;;;3.00;;
23078;SDS011;11707;50.830;4.364;2023-03-05T01:58:56;9.75;;;2.72;;
23078;SDS011;11707;50.830;4.364;2023-03-05T02:01:28;8.45;;;2.88;;
23078;SDS011;11707;50.830;4.364;2023-03-05T02:03:58;5.78;;;2.70;;
23078;SDS011;11707;50.830;4.364;2023-03-05T02:06:24;3.50;;;2.42;;
23078;SDS011;11707;50.830;4.364;2023-03-05T02:08:50;6.88;;;2.92;;
23078;SDS011;11707;50.830;4.364;2023-03-05T02:11:15;11.40;;;3.38;;
23078;SDS011;11707;50.830;4.364;2023-03-05T02:13:41;10.20;;;3.33;;
23078;SDS011;11707;50.830;4.364;2023-03-05T02:16:07;7.25;;;3.15;;
23078;SDS011;11707;50.830;4.364;2023-03-05T02:18:35;7.30;;;2.95;;
23078;SDS011;11707;50.830;4.364;2023-03-05T02:21:04;8.65;;;2.90;;
23078;SDS011;11707;50.830;4.364;2023-03-05T02:23:36;6.15;;;2.97;;
23078;SDS011;11707;50.830;4.364;2023-03-05T02:26:07;8.77;;;2.63;;
23078;SDS011;11707;50.830;4.364;2023-03-05T02:28:37;5.50;;;2.55;;
23078;SDS011;11707;50.830;4.364;2023-03-05T02:31:07;7.75;;;3.13;;
23078;SDS011;11707;50.830;4.364;2023-03-05T02:33:35;6.97;;;3.20;;
23078;SDS011;11707;50.830;4.364;2023-03-05T02:36:01;10.68;;;2.70;;
23078;SDS011;11707;50.830;4.364;2023-03-05T02:38:26;10.77;;;4.05;;
23078;SDS011;11707;50.830;4.364;2023-03-05T02:40:57;6.28;;;2.70;;
23078;SDS011;11707;50.830;4.364;2023-03-05T02:43:23;6.75;;;2.97;;
23078;SDS011;11707;50.830;4.364;2023-03-05T02:45:49;9.40;;;3.15;;
23078;SDS011;11707;50.830;4.364;2023-03-05T02:48:14;11.88;;;3.22;;
23078;SDS011;11707;50.830;4.364;2023-03-05T02:50:40;10.20;;;3.20;;
23078;SDS011;11707;50.830;4.364;2023-03-05T02:53:06;8.63;;;4.13;;
23078;SDS011;11707;50.830;4.364;2023-03-05T02:55:32;10.07;;;4.25;;
23078;SDS011;11707;50.830;4.364;2023-03-05T02:58:00;6.75;;;4.13;;
23078;SDS011;11707;50.830;4.364;2023-03-05T03:00:26;4.82;;;2.95;;
23078;SDS011;11707;50.830;4.364;2023-03-05T03:02:52;8.20;;;4.20;;
23078;SDS011;11707;50.830;4.364;2023-03-05T03:05:20;11.07;;;3.58;;
23078;SDS011;11707;50.830;4.364;2023-03-05T03:07:46;6.35;;;3.88;;
23078;SDS011;11707;50.830;4.364;2023-03-05T03:10:13;17.80;;;4.65;;
23078;SDS011;11707;50.830;4.364;2023-03-05T03:12:39;9.45;;;4.60;;
23078;SDS011;11707;50.830;4.364;2023-03-05T03:15:07;6.68;;;4.38;;
23078;SDS011;11707;50.830;4.364;2023-03-05T03:17:38;7.38;;;4.13;;
23078;SDS011;11707;50.830;4.364;2023-03-05T03:20:04;15.60;;;5.35;;
23078;SDS011;11707;50.830;4.364;2023-03-05T03:22:31;9.40;;;4.50;;
23078;SDS011;11707;50.830;4.364;2023-03-05T03:25:00;10.20;;;4.65;;
23078;SDS011;11707;50.830;4.364;2023-03-05T03:27:25;15.88;;;5.00;;
23078;SDS011;11707;50.830;4.364;2023-03-05T03:29:52;9.00;;;5.20;;
23078;SDS011;11707;50.830;4.364;2023-03-05T03:32:17;9.73;;;5.38;;
23078;SDS011;11707;50.830;4.364;2023-03-05T03:34:43;16.80;;;5.20;;
23078;SDS011;11707;50.830;4.364;2023-03-05T03:37:09;12.98;;;5.45;;
23078;SDS011;11707;50.830;4.364;2023-03-05T03:39:40;18.52;;;5.78;;
23078;SDS011;11707;50.830;4.364;2023-03-05T03:42:06;10.93;;;5.20;;
23078;SDS011;11707;50.830;4.364;2023-03-05T03:44:32;9.82;;;5.20;;
23078;SDS011;11707;50.830;4.364;2023-03-05T03:46:57;7.43;;;4.05;;
23078;SDS011;11707;50.830;4.364;2023-03-05T03:49:24;10.90;;;5.38;;
23078;SDS011;11707;50.830;4.364;2023-03-05T03:51:51;16.00;;;6.13;;
23078;SDS011;11707;50.830;4.364;2023-03-05T03:54:22;8.13;;;4.30;;
23078;SDS011;11707;50.830;4.364;2023-03-05T03:56:53;12.35;;;4.70;;
23078;SDS011;11707;50.830;4.364;2023-03-05T03:59:19;10.35;;;4.93;;
23078;SDS011;11707;50.830;4.364;2023-03-05T04:01:47;11.40;;;5.00;;
23078;SDS011;11707;50.830;4.364;2023-03-05T04:04:12;7.18;;;4.45;;
23078;SDS011;11707;50.830;4.364;2023-03-05T04:06:43;16.10;;;4.75;;
23078;SDS011;11707;50.830;4.364;2023-03-05T04:09:11;12.48;;;5.05;;
23078;SDS011;11707;50.830;4.364;2023-03-05T04:11:37;9.88;;;5.20;;
23078;SDS011;11707;50.830;4.364;2023-03-05T04:14:03;9.05;;;4.72;;
23078;SDS011;11707;50.830;4.364;2023-03-05T04:16:29;10.50;;;5.88;;
23078;SDS011;11707;50.830;4.364;2023-03-05T04:18:54;11.00;;;4.68;;
23078;SDS011;11707;50.830;4.364;2023-03-05T04:21:20;11.25;;;5.00;;
23078;SDS011;11707;50.830;4.364;2023-03-05T04:23:46;13.88;;;5.43;;
23078;SDS011;11707;50.830;4.364;2023-03-05T04:26:12;11.40;;;5.55;;
23078;SDS011;11707;50.830;4.364;2023-03-05T04:28:37;17.40;;;6.07;;
23078;SDS011;11707;50.830;4.364;2023-03-05T04:31:06;9.98;;;5.75;;
23078;SDS011;11707;50.830;4.364;2023-03-05T04:33:34;12.15;;;6.00;;
23078;SDS011;11707;50.830;4.364;2023-03-05T04:36:00;12.85;;;6.85;;
23078;SDS011;11707;50.830;4.364;2023-03-05T04:38:25;11.15;;;6.75;;
23078;SDS011;11707;50.830;4.364;2023-03-05T04:40:51;10.75;;;5.78;;
23078;SDS011;11707;50.830;4.364;2023-03-05T04:43:17;10.13;;;5.85;;
23078;SDS011;11707;50.830;4.364;2023-03-05T04:45:42;15.23;;;6.85;;
23078;SDS011;11707;50.830;4.364;2023-03-05T04:48:11;15.25;;;7.05;;
23078;SDS011;11707;50.830;4.364;2023-03-05T04:50:39;13.18;;;6.78;;
23078;SDS011;11707;50.830;4.364;2023-03-05T04:53:05;11.70;;;6.97;;
23078;SDS011;11707;50.830;4.364;2023-03-05T04:55:31;12.30;;;7.00;;
23078;SDS011;11707;50.830;4.364;2023-03-05T04:57:57;14.00;;;7.68;;
23078;SDS011;11707;50.830;4.364;2023-03-05T05:00:25;11.40;;;6.45;;
23078;SDS011;11707;50.830;4.364;2023-03-05T05:02:51;12.80;;;7.38;;
23078;SDS011;11707;50.830;4.364;2023-03-05T05:05:18;11.38;;;7.78;;
23078;SDS011;11707;50.830;4.364;2023-03-05T05:07:46;18.83;;;8.95;;
23078;SDS011;11707;50.830;4.364;2023-03-05T05:10:12;15.68;;;8.23;;
23078;SDS011;11707;50.830;4.364;2023-03-05T05:12:41;15.27;;;7.85;;
23078;SDS011;11707;50.830;4.364;2023-03-05T05:15:07;14.85;;;8.27;;
23078;SDS011;11707;50.830;4.364;2023-03-05T05:17:33;13.45;;;8.40;;
23078;SDS011;11707;50.830;4.364;2023-03-05T05:19:59;13.23;;;8.18;;
23078;SDS011;11707;50.830;4.364;2023-03-05T05:22:26;14.13;;;8.50;;
23078;SDS011;11707;50.830;4.364;2023-03-05T05:24:53;19.40;;;8.45;;
23078;SDS011;11707;50.830;4.364;2023-03-05T05:27:19;22.05;;;8.88;;
23078;SDS011;11707;50.830;4.364;2023-03-05T05:29:48;11.38;;;7.53;;
23078;SDS011;11707;50.830;4.364;2023-03-05T05:32:17;12.23;;;7.75;;
23078;SDS011;11707;50.830;4.364;2023-03-05T05:34:44;11.32;;;7.88;;
23078;SDS011;11707;50.830;4.364;2023-03-05T05:37:10;16.60;;;9.43;;
23078;SDS011;11707;50.830;4.364;2023-03-05T05:39:36;13.70;;;9.18;;
23078;SDS011;11707;50.830;4.364;2023-03-05T05:42:02;15.88;;;9.43;;
23078;SDS011;11707;50.830;4.364;2023-03-05T05:44:27;13.18;;;9.95;;
23078;SDS011;11707;50.830;4.364;2023-03-05T05:46:53;17.92;;;10.10;;
23078;SDS011;11707;50.830;4.364;2023-03-05T05:49:19;17.95;;;10.55;;
23078;SDS011;11707;50.830;4.364;2023-03-05T05:51:45;16.50;;;10.13;;
23078;SDS011;11707;50.830;4.364;2023-03-05T05:54:11;17.60;;;10.40;;
23078;SDS011;11707;50.830;4.364;2023-03-05T05:56:40;23.25;;;10.52;;
23078;SDS011;11707;50.830;4.364;2023-03-05T05:59:06;15.57;;;9.75;;
23078;SDS011;11707;50.830;4.364;2023-03-05T06:01:33;18.15;;;11.00;;
23078;SDS011;11707;50.830;4.364;2023-03-05T06:03:59;19.90;;;10.57;;
23078;SDS011;11707;50.830;4.364;2023-03-05T06:06:28;16.85;;;11.60;;
23078;SDS011;11707;50.830;4.364;2023-03-05T06:08:54;13.93;;;9.88;;
23078;SDS011;11707;50.830;4.364;2023-03-05T06:11:20;21.98;;;10.98;;
23078;SDS011;11707;50.830;4.364;2023-03-05T06:13:46;17.15;;;11.65;;
23078;SDS011;11707;50.830;4.364;2023-03-05T06:16:16;21.20;;;11.40;;
23078;SDS011;11707;50.830;4.364;2023-03-05T06:18:44;18.77;;;12.00;;
23078;SDS011;11707;50.830;4.364;2023-03-05T06:21:11;23.70;;;12.63;;
23078;SDS011;11707;50.830;4.364;2023-03-05T06:23:38;16.48;;;11.25;;
23078;SDS011;11707;50.830;4.364;2023-03-05T06:26:05;17.42;;;10.82;;
23078;SDS011;11707;50.830;4.364;2023-03-05T06:28:32;21.10;;;12.73;;
23078;SDS011;11707;50.830;4.364;2023-03-05T06:31:06;22.05;;;12.23;;
23078;SDS011;11707;50.830;4.364;2023-03-05T06:33:32;20.15;;;12.77;;
23078;SDS011;11707;50.830;4.364;2023-03-05T06:35:58;20.65;;;12.55;;
23078;SDS011;11707;50.830;4.364;2023-03-05T06:38:26;21.67;;;12.50;;
23078;SDS011;11707;50.830;4.364;2023-03-05T06:40:54;19.48;;;12.65;;
23078;SDS011;11707;50.830;4.364;2023-03-05T06:43:24;19.60;;;12.00;;
23078;SDS011;11707;50.830;4.364;2023-03-05T06:45:59;19.58;;;12.27;;
23078;SDS011;11707;50.830;4.364;2023-03-05T06:48:26;20.40;;;11.05;;
23078;SDS011;11707;50.830;4.364;2023-03-05T06:50:52;15.77;;;10.57;;
23078;SDS011;11707;50.830;4.364;2023-03-05T06:53:17;22.05;;;12.23;;
23078;SDS011;11707;50.830;4.364;2023-03-05T06:55:43;22.35;;;13.30;;
23078;SDS011;11707;50.830;4.364;2023-03-05T06:58:09;18.02;;;11.90;;
23078;SDS011;11707;50.830;4.364;2023-03-05T07:00:37;15.95;;;11.90;;
23078;SDS011;11707;50.830;4.364;2023-03-05T07:03:03;18.50;;;11.55;;
23078;SDS011;11707;50.830;4.364;2023-03-05T07:05:31;21.48;;;11.68;;
23078;SDS011;11707;50.830;4.364;2023-03-05T07:07:56;16.30;;;10.73;;
23078;SDS011;11707;50.830;4.364;2023-03-05T07:10:22;19.38;;;11.80;;
23078;SDS011;11707;50.830;4.364;2023-03-05T07:12:48;18.85;;;10.52;;
23078;SDS011;11707;50.830;4.364;2023-03-05T07:15:13;17.40;;;10.82;;
23078;SDS011;11707;50.830;4.364;2023-03-05T07:17:39;16.80;;;9.95;;
23078;SDS011;11707;50.830;4.364;2023-03-05T07:20:07;20.75;;;10.70;;
23078;SDS011;11707;50.830;4.364;2023-03-05T07:22:36;18.50;;;10.60;;
23078;SDS011;11707;50.830;4.364;2023-03-05T07:25:02;20.77;;;10.23;;
23078;SDS011;11707;50.830;4.364;2023-03-05T07:27:31;14.25;;;9.30;;
23078;SDS011;11707;50.830;4.364;2023-03-05T07:29:59;20.25;;;10.68;;
23078;SDS011;11707;50.830;4.364;2023-03-05T07:32:25;16.45;;;9.93;;
23078;SDS011;11707;50.830;4.364;2023-03-05T07:34:50;18.08;;;10.10;;
23078;SDS011;11707;50.830;4.364;2023-03-05T07:37:16;17.75;;;10.20;;
23078;SDS011;11707;50.830;4.364;2023-03-05T07:39:41;14.32;;;9.50;;
23078;SDS011;11707;50.830;4.364;2023-03-05T07:42:07;13.02;;;9.23;;
23078;SDS011;11707;50.830;4.364;2023-03-05T07:44:35;16.75;;;9.57;;
23078;SDS011;11707;50.830;4.364;2023-03-05T07:47:00;14.43;;;8.60;;
23078;SDS011;11707;50.830;4.364;2023-03-05T07:49:28;13.00;;;7.90;;
23078;SDS011;11707;50.830;4.364;2023-03-05T07:51:54;12.43;;;8.13;;
23078;SDS011;11707;50.830;4.364;2023-03-05T07:54:19;11.40;;;8.10;;
23078;SDS011;11707;50.830;4.364;2023-03-05T07:56:45;13.57;;;8.18;;
23078;SDS011;11707;50.830;4.364;2023-03-05T07:59:11;14.52;;;7.18;;
23078;SDS011;11707;50.830;4.364;2023-03-05T08:01:40;12.27;;;8.27;;
23078;SDS011;11707;50.830;4.364;2023-03-05T08:04:06;12.40;;;7.72;;
23078;SDS011;11707;50.830;4.364;2023-03-05T08:06:37;11.73;;;7.88;;
23078;SDS011;11707;50.830;4.364;2023-03-05T08:09:03;11.85;;;7.50;;
23078;SDS011;11707;50.830;4.364;2023-03-05T08:11:29;11.68;;;8.10;;
23078;SDS011;11707;50.830;4.364;2023-03-05T08:13:55;10.73;;;7.63;;
23078;SDS011;11707;50.830;4.364;2023-03-05T08:16:23;11.25;;;7.65;;
23078;SDS011;11707;50.830;4.364;2023-03-05T08:18:52;13.02;;;7.50;;
23078;SDS011;11707;50.830;4.364;2023-03-05T08:21:22;7.95;;;6.20;;
23078;SDS011;11707;50.830;4.364;2023-03-05T08:23:54;9.18;;;6.47;;
23078;SDS011;11707;50.830;4.364;2023-03-05T08:26:22;9.60;;;7.18;;
23078;SDS011;11707;50.830;4.364;2023-03-05T08:28:52;9.63;;;6.68;;
23078;SDS011;11707;50.830;4.364;2023-03-05T08:31:19;8.77;;;7.00;;
23078;SDS011;11707;50.830;4.364;2023-03-05T08:33:47;9.27;;;7.00;;
23078;SDS011;11707;50.830;4.364;2023-03-05T08:36:13;9.60;;;7.10;;
23078;SDS011;11707;50.830;4.364;2023-03-05T08:38:39;11.10;;;6.15;;
23078;SDS011;11707;50.830;4.364;2023-03-05T08:41:05;10.95;;;7.72;;
23078;SDS011;11707;50.830;4.364;2023-03-05T08:43:30;12.38;;;7.60;;
23078;SDS011;11707;50.830;4.364;2023-03-05T08:45:58;10.23;;;7.05;;
23078;SDS011;11707;50.830;4.364;2023-03-05T08:48:27;11.00;;;7.65;;
23078;SDS011;11707;50.830;4.364;2023-03-05T08:50:55;13.77;;;7.40;;
23078;SDS011;11707;50.830;4.364;2023-03-05T08:53:21;11.10;;;7.97;;
23078;SDS011;11707;50.830;4.364;2023-03-05T08:55:56;12.82;;;8.38;;
23078;SDS011;11707;50.830;4.364;2023-03-05T08:58:23;13.35;;;8.25;;
23078;SDS011;11707;50.830;4.364;2023-03-05T09:00:49;11.45;;;8.10;;
23078;SDS011;11707;50.830;4.364;2023-03-05T09:03:15;13.32;;;7.75;;
23078;SDS011;11707;50.830;4.364;2023-03-05T09:05:41;14.15;;;7.60;;
23078;SDS011;11707;50.830;4.364;2023-03-05T09:08:09;11.05;;;7.78;;
23078;SDS011;11707;50.830;4.364;2023-03-05T09:10:35;13.20;;;8.20;;
23078;SDS011;11707;50.830;4.364;2023-03-05T09:13:01;10.43;;;6.97;;
23078;SDS011;11707;50.830;4.364;2023-03-05T09:15:28;11.23;;;7.32;;
23078;SDS011;11707;50.830;4.364;2023-03-05T09:17:56;10.57;;;7.88;;
23078;SDS011;11707;50.830;4.364;2023-03-05T09:20:23;10.18;;;7.95;;
23078;SDS011;11707;50.830;4.364;2023-03-05T09:22:49;9.75;;;7.60;;
23078;SDS011;11707;50.830;4.364;2023-03-05T09:25:15;8.95;;;6.05;;
23078;SDS011;11707;50.830;4.364;2023-03-05T09:27:41;11.90;;;6.50;;
23078;SDS011;11707;50.830;4.364;2023-03-05T09:30:08;11.27;;;6.13;;
23078;SDS011;11707;50.830;4.364;2023-03-05T09:32:35;9.13;;;6.18;;
23078;SDS011;11707;50.830;4.364;2023-03-05T09:35:04;10.82;;;8.45;;
23078;SDS011;11707;50.830;4.364;2023-03-05T09:37:31;10.65;;;7.35;;
23078;SDS011;11707;50.830;4.364;2023-03-05T09:39:59;9.93;;;6.95;;
23078;SDS011;11707;50.830;4.364;2023-03-05T09:53:01;12.98;;;8.55;;
23078;SDS011;11707;50.830;4.364;2023-03-05T09:55:51;10.65;;;7.25;;
23078;SDS011;11707;50.830;4.364;2023-03-05T10:00:53;10.25;;;6.30;;
23078;SDS011;11707;50.830;4.364;2023-03-05T10:03:26;15.15;;;5.45;;
23078;SDS011;11707;50.830;4.364;2023-03-05T10:05:57;8.55;;;6.78;;
23078;SDS011;11707;50.830;4.364;2023-03-05T10:08:45;9.90;;;7.57;;
23078;SDS011;11707;50.830;4.364;2023-03-05T10:11:38;22.35;;;10.70;;
23078;SDS011;11707;50.830;4.364;2023-03-05T10:34:48;8.10;;;5.00;;
23078;SDS011;11707;50.830;4.364;2023-03-05T10:37:51;6.22;;;3.22;;
23078;SDS011;11707;50.830;4.364;2023-03-05T10:40:32;7.80;;;3.65;;
23078;SDS011;11707;50.830;4.364;2023-03-05T10:45:52;5.80;;;2.72;;
23078;SDS011;11707;50.830;4.364;2023-03-05T10:54:37;4.47;;;2.28;;
23078;SDS011;11707;50.830;4.364;2023-03-05T10:57:23;7.03;;;2.88;;
23078;SDS011;11707;50.830;4.364;2023-03-05T10:59:52;6.43;;;3.60;;
23078;SDS011;11707;50.830;4.364;2023-03-05T11:02:30;6.05;;;3.55;;
23078;SDS011;11707;50.830;4.364;2023-03-05T11:04:56;5.38;;;3.10;;
23078;SDS011;11707;50.830;4.364;2023-03-05T11:12:32;4.65;;;3.00;;
23078;SDS011;11707;50.830;4.364;2023-03-05T11:18:06;5.32;;;3.30;;
23078;SDS011;11707;50.830;4.364;2023-03-05T11:20:43;5.22;;;3.10;;
23078;SDS011;11707;50.830;4.364;2023-03-05T11:23:13;4.65;;;2.92;;
23078;SDS011;11707;50.830;4.364;2023-03-05T11:28:21;4.07;;;2.80;;
23078;SDS011;11707;50.830;4.364;2023-03-05T11:33:35;5.45;;;2.70;;
23078;SDS011;11707;50.830;4.364;2023-03-05T11:36:12;5.35;;;2.53;;
23078;SDS011;11707;50.830;4.364;2023-03-05T11:38:50;5.25;;;2.25;;
23078;SDS011;11707;50.830;4.364;2023-03-05T11:41:17;5.85;;;3.78;;
23078;SDS011;11707;50.830;4.364;2023-03-05T11:43:48;3.55;;;2.30;;
23078;SDS011;11707;50.830;4.364;2023-03-05T11:46:19;2.95;;;2.10;;
23078;SDS011;11707;50.830;4.364;2023-03-05T11:48:46;5.47;;;2.40;;
23078;SDS011;11707;50.830;4.364;2023-03-05T11:51:14;5.32;;;2.65;;
23078;SDS011;11707;50.830;4.364;2023-03-05T11:53:45;6.40;;;2.97;;
23078;SDS011;11707;50.830;4.364;2023-03-05T11:58:47;4.93;;;2.55;;
23078;SDS011;11707;50.830;4.364;2023-03-05T12:01:25;4.25;;;2.50;;
23078;SDS011;11707;50.830;4.364;2023-03-05T12:03:54;4.37;;;2.60;;
23078;SDS011;11707;50.830;4.364;2023-03-05T12:08:56;5.53;;;3.13;;
23078;SDS011;11707;50.830;4.364;2023-03-05T12:11:25;7.05;;;4.30;;
23078;SDS011;11707;50.830;4.364;2023-03-05T12:16:37;9.85;;;4.45;;
23078;SDS011;11707;50.830;4.364;2023-03-05T12:21:47;8.20;;;6.00;;
23078;SDS011;11707;50.830;4.364;2023-03-05T12:26:54;8.68;;;5.45;;
23078;SDS011;11707;50.830;4.364;2023-03-05T12:32:03;10.10;;;6.05;;
23078;SDS011;11707;50.830;4.364;2023-03-05T12:37:55;8.23;;;6.15;;
23078;SDS011;11707;50.830;4.364;2023-03-05T12:39:56;7.20;;;6.22;;
23078;SDS011;11707;50.830;4.364;2023-03-05T12:47:39;7.72;;;6.45;;
23078;SDS011;11707;50.830;4.364;2023-03-05T12:55:36;7.30;;;6.50;;
23078;SDS011;11707;50.830;4.364;2023-03-05T12:58:14;8.13;;;5.43;;
23078;SDS011;11707;50.830;4.364;2023-03-05T13:01:00;6.25;;;4.40;;
23078;SDS011;11707;50.830;4.364;2023-03-05T13:03:33;9.48;;;6.13;;
23078;SDS011;11707;50.830;4.364;2023-03-05T13:06:05;7.70;;;5.20;;
23078;SDS011;11707;50.830;4.364;2023-03-05T13:08:33;5.50;;;4.22;;
23078;SDS011;11707;50.830;4.364;2023-03-05T13:11:22;7.72;;;5.57;;
23078;SDS011;11707;50.830;4.364;2023-03-05T13:13:47;7.50;;;5.38;;
23078;SDS011;11707;50.830;4.364;2023-03-05T13:16:19;6.85;;;5.10;;
23078;SDS011;11707;50.830;4.364;2023-03-05T13:18:50;4.53;;;3.77;;
23078;SDS011;11707;50.830;4.364;2023-03-05T13:21:18;10.75;;;3.75;;
23078;SDS011;11707;50.830;4.364;2023-03-05T13:23:50;5.22;;;2.35;;
23078;SDS011;11707;50.830;4.364;2023-03-05T13:26:25;6.80;;;2.70;;
23078;SDS011;11707;50.830;4.364;2023-03-05T13:31:40;4.38;;;1.65;;
23078;SDS011;11707;50.830;4.364;2023-03-05T13:34:22;3.45;;;2.00;;
23078;SDS011;11707;50.830;4.364;2023-03-05T13:36:53;5.93;;;2.15;;
23078;SDS011;11707;50.830;4.364;2023-03-05T13:42:17;4.32;;;1.92;;
23078;SDS011;11707;50.830;4.364;2023-03-05T13:44:51;3.70;;;1.27;;
23078;SDS011;11707;50.830;4.364;2023-03-05T13:47:19;3.28;;;1.48;;
23078;SDS011;11707;50.830;4.364;2023-03-05T13:49:46;3.08;;;1.35;;
23078;SDS011;11707;50.830;4.364;2023-03-05T13:52:24;2.88;;;1.23;;
23078;SDS011;11707;50.830;4.364;2023-03-05T13:54:51;2.95;;;0.90;;
23078;SDS011;11707;50.830;4.364;2023-03-05T14:02:56;2.05;;;0.95;;
23078;SDS011;11707;50.830;4.364;2023-03-05T14:05:25;1.88;;;0.80;;
23078;SDS011;11707;50.830;4.364;2023-03-05T14:07:55;2.97;;;1.00;;
23078;SDS011;11707;50.830;4.364;2023-03-05T14:12:57;2.03;;;1.20;;
23078;SDS011;11707;50.830;4.364;2023-03-05T14:15:29;2.58;;;1.38;;
23078;SDS011;11707;50.830;4.364;2023-03-05T14:18:07;3.17;;;1.65;;
23078;SDS011;11707;50.830;4.364;2023-03-05T14:20:36;2.70;;;1.67;;
23078;SDS011;11707;50.830;4.364;2023-03-05T14:23:23;3.20;;;1.42;;
23078;SDS011;11707;50.830;4.364;2023-03-05T14:28:41;2.53;;;1.23;;
23078;SDS011;11707;50.830;4.364;2023-03-05T14:31:13;3.33;;;1.35;;
23078;SDS011;11707;50.830;4.364;2023-03-05T14:33:41;3.80;;;1.33;;
23078;SDS011;11707;50.830;4.364;2023-03-05T14:36:07;2.45;;;0.88;;
23078;SDS011;11707;50.830;4.364;2023-03-05T14:38:34;2.63;;;1.13;;
23078;SDS011;11707;50.830;4.364;2023-03-05T14:43:57;2.08;;;0.73;;
23078;SDS011;11707;50.830;4.364;2023-03-05T14:46:23;3.13;;;1.23;;
23078;SDS011;11707;50.830;4.364;2023-03-05T14:48:49;2.22;;;0.85;;
23078;SDS011;11707;50.830;4.364;2023-03-05T14:51:14;1.77;;;1.13;;
23078;SDS011;11707;50.830;4.364;2023-03-05T14:53:44;4.10;;;1.10;;
23078;SDS011;11707;50.830;4.364;2023-03-05T14:56:21;7.10;;;1.83;;
23078;SDS011;11707;50.830;4.364;2023-03-05T14:58:52;2.83;;;1.00;;
23078;SDS011;11707;50.830;4.364;2023-03-05T15:01:18;3.13;;;1.13;;
23078;SDS011;11707;50.830;4.364;2023-03-05T15:03:45;3.50;;;1.48;;
23078;SDS011;11707;50.830;4.364;2023-03-05T15:06:33;2.65;;;1.05;;
23078;SDS011;11707;50.830;4.364;2023-03-05T15:09:00;1.45;;;0.60;;
23078;SDS011;11707;50.830;4.364;2023-03-05T15:11:29;2.13;;;1.00;;
23078;SDS011;11707;50.830;4.364;2023-03-05T15:13:57;1.98;;;1.20;;
23078;SDS011;11707;50.830;4.364;2023-03-05T15:16:22;2.38;;;1.15;;
23078;SDS011;11707;50.830;4.364;2023-03-05T15:18:48;2.35;;;1.20;;
23078;SDS011;11707;50.830;4.364;2023-03-05T15:21:16;3.28;;;1.25;;
23078;SDS011;11707;50.830;4.364;2023-03-05T15:23:42;5.28;;;1.55;;
23078;SDS011;11707;50.830;4.364;2023-03-05T15:26:11;5.32;;;1.60;;
23078;SDS011;11707;50.830;4.364;2023-03-05T15:28:41;5.03;;;1.38;;
23078;SDS011;11707;50.830;4.364;2023-03-05T15:31:09;2.63;;;1.38;;
23078;SDS011;11707;50.830;4.364;2023-03-05T15:33:35;5.05;;;1.98;;
23078;SDS011;11707;50.830;4.364;2023-03-05T15:36:05;3.72;;;1.70;;
23078;SDS011;11707;50.830;4.364;2023-03-05T15:38:32;4.68;;;1.55;;
23078;SDS011;11707;50.830;4.364;2023-03-05T15:40:58;4.93;;;2.08;;
23078;SDS011;11707;50.830;4.364;2023-03-05T15:43:24;8.02;;;2.50;;
23078;SDS011;11707;50.830;4.364;2023-03-05T15:45:50;5.10;;;1.70;;
23078;SDS011;11707;50.830;4.364;2023-03-05T15:48:17;3.90;;;1.90;;
23078;SDS011;11707;50.830;4.364;2023-03-05T15:50:43;3.78;;;1.90;;
23078;SDS011;11707;50.830;4.364;2023-03-05T15:53:10;5.72;;;1.90;;
23078;SDS011;11707;50.830;4.364;2023-03-05T15:55:40;3.00;;;1.27;;
23078;SDS011;11707;50.830;4.364;2023-03-05T15:58:07;6.72;;;1.67;;
23078;SDS011;11707;50.830;4.364;2023-03-05T16:00:37;2.58;;;1.80;;
23078;SDS011;11707;50.830;4.364;2023-03-05T16:03:04;3.67;;;1.92;;
23078;SDS011;11707;50.830;4.364;2023-03-05T16:05:29;4.45;;;2.45;;
23078;SDS011;11707;50.830;4.364;2023-03-05T16:07:58;5.18;;;2.13;;
23078;SDS011;11707;50.830;4.364;2023-03-05T16:10:25;4.05;;;2.35;;
23078;SDS011;11707;50.830;4.364;2023-03-05T16:12:53;8.75;;;2.50;;
23078;SDS011;11707;50.830;4.364;2023-03-05T16:15:25;4.10;;;2.53;;
23078;SDS011;11707;50.830;4.364;2023-03-05T16:17:52;5.43;;;3.88;;
23078;SDS011;11707;50.830;4.364;2023-03-05T16:20:20;7.32;;;3.40;;
23078;SDS011;11707;50.830;4.364;2023-03-05T16:22:46;5.22;;;2.30;;
23078;SDS011;11707;50.830;4.364;2023-03-05T16:25:13;2.75;;;1.58;;
23078;SDS011;11707;50.830;4.364;2023-03-05T16:27:39;3.03;;;1.90;;
23078;SDS011;11707;50.830;4.364;2023-03-05T16:30:05;5.13;;;1.90;;
23078;SDS011;11707;50.830;4.364;2023-03-05T16:32:34;3.33;;;2.70;;
23078;SDS011;11707;50.830;4.364;2023-03-05T16:35:02;2.38;;;1.77;;